sensor_id;sensor_type;location;lat;lon;timestamp;temperature;humidity
22471;DHT22;11402;51.374;6.594;2023-04-24T00:00:54;11.50;99.90
22471;DHT22;11402;51.374;6.594;2023-04-24T00:03:25;11.50;99.90
22471;DHT22;11402;51.374;6.594;2023-04-24T00:05:56;11.50;99.90
22471;DHT22;11402;51.374;6.594;2023-04-24T00:08:21;11.50;99.90
22471;DHT22;11402;51.374;6.594;2023-04-24T00:10:48;11.50;99.90
22471;DHT22;11402;51.374;6.594;2023-04-24T00:13:13;11.50;99.90
22471;DHT22;11402;51.374;6.594;2023-04-24T00:15:39;11.50;99.90
22471;DHT22;11402;51.374;6.594;2023-04-24T00:18:05;11.50;99.90
22471;DHT22;11402;51.374;6.594;2023-04-24T00:20:30;11.40;99.90
22471;DHT22;11402;51.374;6.594;2023-04-24T00:22:57;11.50;99.90
22471;DHT22;11402;51.374;6.594;2023-04-24T00:25:23;11.40;99.90
22471;DHT22;11402;51.374;6.594;2023-04-24T00:27:49;11.50;99.90
22471;DHT22;11402;51.374;6.594;2023-04-24T00:30:14;11.50;99.90
22471;DHT22;11402;51.374;6.594;2023-04-24T00:32:40;11.50;99.90
22471;DHT22;11402;51.374;6.594;2023-04-24T00:35:06;11.30;99.90
22471;DHT22;11402;51.374;6.594;2023-04-24T00:37:32;11.30;99.90
22471;DHT22;11402;51.374;6.594;2023-04-24T00:39:57;11.30;99.90
22471;DHT22;11402;51.374;6.594;2023-04-24T00:42:24;11.30;99.90
22471;DHT22;11402;51.374;6.594;2023-04-24T00:44:50;11.30;99.90
22471;DHT22;11402;51.374;6.594;2023-04-24T00:47:16;11.20;99.90
22471;DHT22;11402;51.374;6.594;2023-04-24T00:49:42;11.20;99.90
22471;DHT22;11402;51.374;6.594;2023-04-24T00:52:07;11.20;99.90
22471;DHT22;11402;51.374;6.594;2023-04-24T00:54:35;11.10;99.90
22471;DHT22;11402;51.374;6.594;2023-04-24T00:57:02;11.00;99.90
22471;DHT22;11402;51.374;6.594;2023-04-24T00:59:28;10.90;99.90
22471;DHT22;11402;51.374;6.594;2023-04-24T01:01:55;10.90;99.90
22471;DHT22;11402;51.374;6.594;2023-04-24T01:04:21;11.00;99.90
22471;DHT22;11402;51.374;6.594;2023-04-24T01:06:48;10.80;99.90
22471;DHT22;11402;51.374;6.594;2023-04-24T01:09:15;10.80;99.90
22471;DHT22;11402;51.374;6.594;2023-04-24T01:11:41;10.80;99.90
22471;DHT22;11402;51.374;6.594;2023-04-24T01:14:08;10.70;99.90
22471;DHT22;11402;51.374;6.594;2023-04-24T01:16:33;10.80;99.90
22471;DHT22;11402;51.374;6.594;2023-04-24T01:18:59;10.80;99.90
22471;DHT22;11402;51.374;6.594;2023-04-24T01:21:26;10.70;99.90
22471;DHT22;11402;51.374;6.594;2023-04-24T01:23:55;10.80;99.90
22471;DHT22;11402;51.374;6.594;2023-04-24T01:26:22;10.80;99.90
22471;DHT22;11402;51.374;6.594;2023-04-24T01:28:48;10.80;99.90
22471;DHT22;11402;51.374;6.594;2023-04-24T01:31:15;10.90;99.90
22471;DHT22;11402;51.374;6.594;2023-04-24T01:33:41;10.90;99.90
22471;DHT22;11402;51.374;6.594;2023-04-24T01:36:09;10.80;99.90
22471;DHT22;11402;51.374;6.594;2023-04-24T01:38:35;10.70;99.90
22471;DHT22;11402;51.374;6.594;2023-04-24T01:41:01;10.70;99.90
22471;DHT22;11402;51.374;6.594;2023-04-24T01:43:27;10.70;99.90
22471;DHT22;11402;51.374;6.594;2023-04-24T01:45:53;10.60;99.90
22471;DHT22;11402;51.374;6.594;2023-04-24T01:48:18;10.60;99.90
22471;DHT22;11402;51.374;6.594;2023-04-24T01:50:44;10.50;99.90
22471;DHT22;11402;51.374;6.594;2023-04-24T01:53:10;10.60;99.90
22471;DHT22;11402;51.374;6.594;2023-04-24T01:55:35;10.70;99.90
22471;DHT22;11402;51.374;6.594;2023-04-24T01:58:01;10.70;99.90
22471;DHT22;11402;51.374;6.594;2023-04-24T02:00:27;10.60;99.90
22471;DHT22;11402;51.374;6.594;2023-04-24T02:02:53;10.60;99.90
22471;DHT22;11402;51.374;6.594;2023-04-24T02:05:18;10.60;99.90
22471;DHT22;11402;51.374;6.594;2023-04-24T02:07:44;10.60;99.90
22471;DHT22;11402;51.374;6.594;2023-04-24T02:10:10;10.70;99.90
22471;DHT22;11402;51.374;6.594;2023-04-24T02:12:36;10.30;99.90
22471;DHT22;11402;51.374;6.594;2023-04-24T02:15:01;10.50;99.90
22471;DHT22;11402;51.374;6.594;2023-04-24T02:17:27;10.50;99.90
22471;DHT22;11402;51.374;6.594;2023-04-24T02:19:53;10.40;99.90
22471;DHT22;11402;51.374;6.594;2023-04-24T02:22:18;9.60;99.90
22471;DHT22;11402;51.374;6.594;2023-04-24T02:24:44;10.50;99.90
22471;DHT22;11402;51.374;6.594;2023-04-24T02:27:09;10.60;99.90
22471;DHT22;11402;51.374;6.594;2023-04-24T02:29:36;10.40;99.90
22471;DHT22;11402;51.374;6.594;2023-04-24T02:32:02;10.50;99.90
22471;DHT22;11402;51.374;6.594;2023-04-24T02:34:27;10.60;99.90
22471;DHT22;11402;51.374;6.594;2023-04-24T02:36:53;10.40;99.90
22471;DHT22;11402;51.374;6.594;2023-04-24T02:39:22;10.50;99.90
22471;DHT22;11402;51.374;6.594;2023-04-24T02:41:47;10.50;99.90
22471;DHT22;11402;51.374;6.594;2023-04-24T02:44:13;10.60;99.90
22471;DHT22;11402;51.374;6.594;2023-04-24T02:46:38;10.60;99.90
22471;DHT22;11402;51.374;6.594;2023-04-24T02:49:06;10.60;99.90
22471;DHT22;11402;51.374;6.594;2023-04-24T02:51:32;10.60;99.90
22471;DHT22;11402;51.374;6.594;2023-04-24T02:53:57;10.60;99.90
22471;DHT22;11402;51.374;6.594;2023-04-24T02:56:23;10.60;99.90
22471;DHT22;11402;51.374;6.594;2023-04-24T02:58:48;10.50;99.90
22471;DHT22;11402;51.374;6.594;2023-04-24T03:01:14;10.60;99.90
22471;DHT22;11402;51.374;6.594;2023-04-24T03:03:40;10.60;99.90
22471;DHT22;11402;51.374;6.594;2023-04-24T03:06:05;10.60;99.90
22471;DHT22;11402;51.374;6.594;2023-04-24T03:08:33;10.50;99.90
22471;DHT22;11402;51.374;6.594;2023-04-24T03:10:59;10.60;99.90
22471;DHT22;11402;51.374;6.594;2023-04-24T03:13:24;10.60;99.90
22471;DHT22;11402;51.374;6.594;2023-04-24T03:15:50;10.50;99.90
22471;DHT22;11402;51.374;6.594;2023-04-24T03:18:15;10.50;99.90
22471;DHT22;11402;51.374;6.594;2023-04-24T03:20:41;10.50;99.90
22471;DHT22;11402;51.374;6.594;2023-04-24T03:23:07;10.50;99.90
22471;DHT22;11402;51.374;6.594;2023-04-24T03:25:32;10.60;99.90
22471;DHT22;11402;51.374;6.594;2023-04-24T03:27:58;10.60;99.90
22471;DHT22;11402;51.374;6.594;2023-04-24T03:30:23;10.50;99.90
22471;DHT22;11402;51.374;6.594;2023-04-24T03:32:49;10.50;99.90
22471;DHT22;11402;51.374;6.594;2023-04-24T03:35:14;10.50;99.90
22471;DHT22;11402;51.374;6.594;2023-04-24T03:37:40;10.50;99.90
22471;DHT22;11402;51.374;6.594;2023-04-24T03:40:06;10.50;99.90
22471;DHT22;11402;51.374;6.594;2023-04-24T03:42:32;10.50;99.90
22471;DHT22;11402;51.374;6.594;2023-04-24T03:44:58;10.50;99.90
22471;DHT22;11402;51.374;6.594;2023-04-24T03:47:23;10.40;99.90
22471;DHT22;11402;51.374;6.594;2023-04-24T03:49:49;10.40;99.90
22471;DHT22;11402;51.374;6.594;2023-04-24T03:52:14;10.40;99.90
22471;DHT22;11402;51.374;6.594;2023-04-24T03:54:40;10.60;99.90
22471;DHT22;11402;51.374;6.594;2023-04-24T03:57:05;10.40;99.90
22471;DHT22;11402;51.374;6.594;2023-04-24T03:59:31;10.40;99.90
22471;DHT22;11402;51.374;6.594;2023-04-24T04:01:56;10.40;99.90
22471;DHT22;11402;51.374;6.594;2023-04-24T04:04:22;10.40;99.90
22471;DHT22;11402;51.374;6.594;2023-04-24T04:06:48;10.30;99.90
22471;DHT22;11402;51.374;6.594;2023-04-24T04:09:14;10.40;99.90
22471;DHT22;11402;51.374;6.594;2023-04-24T04:11:40;10.50;99.90
22471;DHT22;11402;51.374;6.594;2023-04-24T04:14:05;10.30;99.90
22471;DHT22;11402;51.374;6.594;2023-04-24T04:16:31;10.20;99.90
22471;DHT22;11402;51.374;6.594;2023-04-24T04:18:56;10.30;99.90
22471;DHT22;11402;51.374;6.594;2023-04-24T04:21:22;10.30;99.90
22471;DHT22;11402;51.374;6.594;2023-04-24T04:23:48;10.40;99.90
22471;DHT22;11402;51.374;6.594;2023-04-24T04:26:13;10.40;99.90
22471;DHT22;11402;51.374;6.594;2023-04-24T04:28:39;10.50;99.90
22471;DHT22;11402;51.374;6.594;2023-04-24T04:31:05;10.40;99.90
22471;DHT22;11402;51.374;6.594;2023-04-24T04:33:31;10.50;99.90
22471;DHT22;11402;51.374;6.594;2023-04-24T04:35:57;10.40;99.90
22471;DHT22;11402;51.374;6.594;2023-04-24T04:38:22;10.40;99.90
22471;DHT22;11402;51.374;6.594;2023-04-24T04:40:48;10.40;99.90
22471;DHT22;11402;51.374;6.594;2023-04-24T04:43:14;10.50;99.90
22471;DHT22;11402;51.374;6.594;2023-04-24T04:45:42;10.50;99.90
22471;DHT22;11402;51.374;6.594;2023-04-24T04:48:08;10.50;99.90
22471;DHT22;11402;51.374;6.594;2023-04-24T04:50:35;10.50;99.90
22471;DHT22;11402;51.374;6.594;2023-04-24T04:53:01;10.50;99.90
22471;DHT22;11402;51.374;6.594;2023-04-24T04:55:27;10.30;99.90
22471;DHT22;11402;51.374;6.594;2023-04-24T04:57:52;10.40;99.90
22471;DHT22;11402;51.374;6.594;2023-04-24T05:00:18;10.50;99.90
22471;DHT22;11402;51.374;6.594;2023-04-24T05:02:44;10.40;99.90
22471;DHT22;11402;51.374;6.594;2023-04-24T05:05:10;10.40;99.90
22471;DHT22;11402;51.374;6.594;2023-04-24T05:07:36;10.40;99.90
22471;DHT22;11402;51.374;6.594;2023-04-24T05:10:01;10.00;99.90
22471;DHT22;11402;51.374;6.594;2023-04-24T05:12:27;9.90;99.90
22471;DHT22;11402;51.374;6.594;2023-04-24T05:14:53;9.90;99.90
22471;DHT22;11402;51.374;6.594;2023-04-24T05:17:18;10.10;99.90
22471;DHT22;11402;51.374;6.594;2023-04-24T05:19:44;10.00;99.90
22471;DHT22;11402;51.374;6.594;2023-04-24T05:22:10;9.90;99.90
22471;DHT22;11402;51.374;6.594;2023-04-24T05:24:37;10.00;99.90
22471;DHT22;11402;51.374;6.594;2023-04-24T05:27:03;9.90;99.90
22471;DHT22;11402;51.374;6.594;2023-04-24T05:29:32;10.00;99.90
22471;DHT22;11402;51.374;6.594;2023-04-24T05:31:58;10.10;99.90
22471;DHT22;11402;51.374;6.594;2023-04-24T05:34:24;10.00;99.90
22471;DHT22;11402;51.374;6.594;2023-04-24T05:36:50;9.90;99.90
22471;DHT22;11402;51.374;6.594;2023-04-24T05:39:16;9.90;99.90
22471;DHT22;11402;51.374;6.594;2023-04-24T05:41:42;9.90;99.90
22471;DHT22;11402;51.374;6.594;2023-04-24T05:44:08;9.90;99.90
22471;DHT22;11402;51.374;6.594;2023-04-24T05:46:33;9.90;99.90
22471;DHT22;11402;51.374;6.594;2023-04-24T05:48:59;10.00;99.90
22471;DHT22;11402;51.374;6.594;2023-04-24T05:51:25;10.00;99.90
22471;DHT22;11402;51.374;6.594;2023-04-24T05:53:51;9.90;99.90
22471;DHT22;11402;51.374;6.594;2023-04-24T05:56:17;9.90;99.90
22471;DHT22;11402;51.374;6.594;2023-04-24T05:58:42;9.80;99.90
22471;DHT22;11402;51.374;6.594;2023-04-24T06:01:08;9.80;99.90
22471;DHT22;11402;51.374;6.594;2023-04-24T06:03:34;9.90;99.90
22471;DHT22;11402;51.374;6.594;2023-04-24T06:06:00;10.00;99.90
22471;DHT22;11402;51.374;6.594;2023-04-24T06:08:26;9.90;99.90
22471;DHT22;11402;51.374;6.594;2023-04-24T06:10:51;9.90;99.90
22471;DHT22;11402;51.374;6.594;2023-04-24T06:13:17;10.00;99.90
22471;DHT22;11402;51.374;6.594;2023-04-24T06:15:43;9.90;99.90
22471;DHT22;11402;51.374;6.594;2023-04-24T06:18:09;10.00;99.90
22471;DHT22;11402;51.374;6.594;2023-04-24T06:20:38;10.00;99.90
22471;DHT22;11402;51.374;6.594;2023-04-24T06:23:04;10.10;99.90
22471;DHT22;11402;51.374;6.594;2023-04-24T06:25:29;10.00;99.90
22471;DHT22;11402;51.374;6.594;2023-04-24T06:27:56;10.10;99.90
22471;DHT22;11402;51.374;6.594;2023-04-24T06:30:22;10.10;99.90
22471;DHT22;11402;51.374;6.594;2023-04-24T06:32:47;10.10;99.90
22471;DHT22;11402;51.374;6.594;2023-04-24T06:35:13;10.00;99.90
22471;DHT22;11402;51.374;6.594;2023-04-24T06:37:42;10.00;99.90
22471;DHT22;11402;51.374;6.594;2023-04-24T06:40:09;10.00;99.90
22471;DHT22;11402;51.374;6.594;2023-04-24T06:42:35;10.00;99.90
22471;DHT22;11402;51.374;6.594;2023-04-24T06:45:01;10.00;99.90
22471;DHT22;11402;51.374;6.594;2023-04-24T06:47:27;9.90;99.90
22471;DHT22;11402;51.374;6.594;2023-04-24T06:49:52;10.00;99.90
22471;DHT22;11402;51.374;6.594;2023-04-24T06:52:19;10.00;99.90
22471;DHT22;11402;51.374;6.594;2023-04-24T06:54:45;10.10;99.90
22471;DHT22;11402;51.374;6.594;2023-04-24T06:57:10;10.10;99.90
22471;DHT22;11402;51.374;6.594;2023-04-24T06:59:36;10.10;99.90
22471;DHT22;11402;51.374;6.594;2023-04-24T07:02:02;10.20;99.90
22471;DHT22;11402;51.374;6.594;2023-04-24T07:04:28;10.20;99.90
22471;DHT22;11402;51.374;6.594;2023-04-24T07:06:54;10.30;99.90
22471;DHT22;11402;51.374;6.594;2023-04-24T07:09:22;10.20;99.90
22471;DHT22;11402;51.374;6.594;2023-04-24T07:11:49;9.80;99.90
22471;DHT22;11402;51.374;6.594;2023-04-24T07:14:15;9.90;99.90
22471;DHT22;11402;51.374;6.594;2023-04-24T07:16:41;10.00;99.90
22471;DHT22;11402;51.374;6.594;2023-04-24T07:19:07;10.00;99.90
22471;DHT22;11402;51.374;6.594;2023-04-24T07:21:33;9.80;99.90
22471;DHT22;11402;51.374;6.594;2023-04-24T07:23:58;9.80;99.90
22471;DHT22;11402;51.374;6.594;2023-04-24T07:26:25;9.80;99.90
22471;DHT22;11402;51.374;6.594;2023-04-24T07:28:51;9.80;99.90
22471;DHT22;11402;51.374;6.594;2023-04-24T07:31:16;9.80;99.90
22471;DHT22;11402;51.374;6.594;2023-04-24T07:33:42;9.70;99.90
22471;DHT22;11402;51.374;6.594;2023-04-24T07:36:07;9.70;99.90
22471;DHT22;11402;51.374;6.594;2023-04-24T07:38:33;9.60;99.90
22471;DHT22;11402;51.374;6.594;2023-04-24T07:40:58;9.50;99.90
22471;DHT22;11402;51.374;6.594;2023-04-24T07:43:24;9.60;99.90
22471;DHT22;11402;51.374;6.594;2023-04-24T07:45:50;9.70;99.90
22471;DHT22;11402;51.374;6.594;2023-04-24T07:48:17;9.60;99.90
22471;DHT22;11402;51.374;6.594;2023-04-24T07:50:43;9.50;99.90
22471;DHT22;11402;51.374;6.594;2023-04-24T07:53:09;9.40;99.90
22471;DHT22;11402;51.374;6.594;2023-04-24T07:55:34;9.50;99.90
22471;DHT22;11402;51.374;6.594;2023-04-24T07:58:00;9.60;99.90
22471;DHT22;11402;51.374;6.594;2023-04-24T08:00:25;9.60;99.90
22471;DHT22;11402;51.374;6.594;2023-04-24T08:02:51;9.60;99.90
22471;DHT22;11402;51.374;6.594;2023-04-24T08:05:17;9.60;99.90
22471;DHT22;11402;51.374;6.594;2023-04-24T08:07:42;9.70;99.90
22471;DHT22;11402;51.374;6.594;2023-04-24T08:10:10;9.70;99.90
22471;DHT22;11402;51.374;6.594;2023-04-24T08:12:37;9.40;99.90
22471;DHT22;11402;51.374;6.594;2023-04-24T08:15:03;9.40;99.90
22471;DHT22;11402;51.374;6.594;2023-04-24T08:17:29;9.50;99.90
22471;DHT22;11402;51.374;6.594;2023-04-24T08:19:54;9.40;99.90
22471;DHT22;11402;51.374;6.594;2023-04-24T08:22:27;9.40;99.90
22471;DHT22;11402;51.374;6.594;2023-04-24T08:24:52;9.50;99.90
22471;DHT22;11402;51.374;6.594;2023-04-24T08:27:18;9.50;99.90
22471;DHT22;11402;51.374;6.594;2023-04-24T08:29:44;9.70;99.90
22471;DHT22;11402;51.374;6.594;2023-04-24T08:32:09;9.70;99.90
22471;DHT22;11402;51.374;6.594;2023-04-24T08:34:35;9.70;99.90
22471;DHT22;11402;51.374;6.594;2023-04-24T08:37:02;9.70;99.90
22471;DHT22;11402;51.374;6.594;2023-04-24T08:39:28;9.60;99.90
22471;DHT22;11402;51.374;6.594;2023-04-24T08:41:55;9.70;99.90
22471;DHT22;11402;51.374;6.594;2023-04-24T08:44:21;9.80;99.90
22471;DHT22;11402;51.374;6.594;2023-04-24T08:46:48;9.80;99.90
22471;DHT22;11402;51.374;6.594;2023-04-24T08:49:15;9.70;99.90
22471;DHT22;11402;51.374;6.594;2023-04-24T08:51:45;9.40;99.90
22471;DHT22;11402;51.374;6.594;2023-04-24T08:54:12;9.50;99.90
22471;DHT22;11402;51.374;6.594;2023-04-24T08:56:40;9.40;99.90
22471;DHT22;11402;51.374;6.594;2023-04-24T08:59:09;9.30;99.90
22471;DHT22;11402;51.374;6.594;2023-04-24T09:01:35;9.20;99.90
22471;DHT22;11402;51.374;6.594;2023-04-24T09:04:03;9.20;99.90
22471;DHT22;11402;51.374;6.594;2023-04-24T09:06:30;9.00;99.90
22471;DHT22;11402;51.374;6.594;2023-04-24T09:09:02;9.10;99.90
22471;DHT22;11402;51.374;6.594;2023-04-24T09:11:30;9.00;99.90
22471;DHT22;11402;51.374;6.594;2023-04-24T09:13:57;9.00;99.90
22471;DHT22;11402;51.374;6.594;2023-04-24T09:16:25;9.00;99.90
22471;DHT22;11402;51.374;6.594;2023-04-24T09:18:52;9.00;99.90
22471;DHT22;11402;51.374;6.594;2023-04-24T09:21:20;8.90;99.90
22471;DHT22;11402;51.374;6.594;2023-04-24T09:23:46;8.90;99.90
22471;DHT22;11402;51.374;6.594;2023-04-24T09:26:12;8.90;99.90
22471;DHT22;11402;51.374;6.594;2023-04-24T09:28:40;8.90;99.90
22471;DHT22;11402;51.374;6.594;2023-04-24T09:31:08;8.70;99.90
22471;DHT22;11402;51.374;6.594;2023-04-24T09:33:34;8.80;99.90
22471;DHT22;11402;51.374;6.594;2023-04-24T09:35:59;8.80;99.90
22471;DHT22;11402;51.374;6.594;2023-04-24T09:38:38;8.90;99.90
22471;DHT22;11402;51.374;6.594;2023-04-24T09:41:08;9.00;99.90
22471;DHT22;11402;51.374;6.594;2023-04-24T09:43:38;9.10;99.90
22471;DHT22;11402;51.374;6.594;2023-04-24T09:46:06;9.20;99.90
22471;DHT22;11402;51.374;6.594;2023-04-24T09:48:34;9.10;99.90
22471;DHT22;11402;51.374;6.594;2023-04-24T09:51:01;9.30;99.90
22471;DHT22;11402;51.374;6.594;2023-04-24T09:53:29;9.30;99.90
22471;DHT22;11402;51.374;6.594;2023-04-24T09:55:55;9.40;99.90
22471;DHT22;11402;51.374;6.594;2023-04-24T09:58:28;9.30;99.90
22471;DHT22;11402;51.374;6.594;2023-04-24T10:00:55;9.40;99.90
22471;DHT22;11402;51.374;6.594;2023-04-24T10:03:21;9.50;99.90
22471;DHT22;11402;51.374;6.594;2023-04-24T10:05:47;9.40;99.90
22471;DHT22;11402;51.374;6.594;2023-04-24T10:08:13;9.60;99.90
22471;DHT22;11402;51.374;6.594;2023-04-24T10:10:40;9.60;99.90
22471;DHT22;11402;51.374;6.594;2023-04-24T10:13:08;9.70;99.90
22471;DHT22;11402;51.374;6.594;2023-04-24T10:15:34;9.60;99.90
22471;DHT22;11402;51.374;6.594;2023-04-24T10:18:00;9.60;99.90
22471;DHT22;11402;51.374;6.594;2023-04-24T10:20:28;9.70;99.90
22471;DHT22;11402;51.374;6.594;2023-04-24T10:22:58;9.60;99.90
22471;DHT22;11402;51.374;6.594;2023-04-24T10:25:30;9.40;99.90
22471;DHT22;11402;51.374;6.594;2023-04-24T10:27:57;9.60;99.90
22471;DHT22;11402;51.374;6.594;2023-04-24T10:30:32;9.60;99.90
22471;DHT22;11402;51.374;6.594;2023-04-24T10:33:05;9.80;99.90
22471;DHT22;11402;51.374;6.594;2023-04-24T10:35:34;9.70;99.90
22471;DHT22;11402;51.374;6.594;2023-04-24T10:38:12;9.70;99.90
22471;DHT22;11402;51.374;6.594;2023-04-24T10:40:38;9.70;99.90
22471;DHT22;11402;51.374;6.594;2023-04-24T10:43:08;9.90;99.90
22471;DHT22;11402;51.374;6.594;2023-04-24T10:45:36;10.00;99.90
22471;DHT22;11402;51.374;6.594;2023-04-24T10:48:04;10.10;99.90
22471;DHT22;11402;51.374;6.594;2023-04-24T10:50:43;10.20;99.90
22471;DHT22;11402;51.374;6.594;2023-04-24T10:53:23;10.30;99.90
22471;DHT22;11402;51.374;6.594;2023-04-24T10:55:58;10.50;99.90
22471;DHT22;11402;51.374;6.594;2023-04-24T10:58:36;10.60;99.90
22471;DHT22;11402;51.374;6.594;2023-04-24T11:01:02;10.60;99.90
22471;DHT22;11402;51.374;6.594;2023-04-24T11:03:30;10.20;99.90
22471;DHT22;11402;51.374;6.594;2023-04-24T11:06:06;10.20;99.90
22471;DHT22;11402;51.374;6.594;2023-04-24T11:08:39;10.10;99.90
22471;DHT22;11402;51.374;6.594;2023-04-24T11:11:15;10.10;99.90
22471;DHT22;11402;51.374;6.594;2023-04-24T11:16:34;10.10;99.90
22471;DHT22;11402;51.374;6.594;2023-04-24T11:21:40;10.20;99.90
22471;DHT22;11402;51.374;6.594;2023-04-24T11:37:40;10.90;99.90
22471;DHT22;11402;51.374;6.594;2023-04-24T11:40:11;11.10;99.90
22471;DHT22;11402;51.374;6.594;2023-04-24T11:42:44;10.80;99.90
22471;DHT22;11402;51.374;6.594;2023-04-24T11:45:22;10.80;99.90
22471;DHT22;11402;51.374;6.594;2023-04-24T11:47:48;10.90;99.90
22471;DHT22;11402;51.374;6.594;2023-04-24T11:50:17;10.90;99.90
22471;DHT22;11402;51.374;6.594;2023-04-24T11:52:47;10.90;99.90
22471;DHT22;11402;51.374;6.594;2023-04-24T11:57:49;10.90;99.90
22471;DHT22;11402;51.374;6.594;2023-04-24T12:00:16;10.80;99.90
22471;DHT22;11402;51.374;6.594;2023-04-24T12:02:44;10.50;99.90
22471;DHT22;11402;51.374;6.594;2023-04-24T12:05:22;10.40;99.90
22471;DHT22;11402;51.374;6.594;2023-04-24T12:07:48;10.40;99.90
22471;DHT22;11402;51.374;6.594;2023-04-24T12:10:13;10.50;99.90
22471;DHT22;11402;51.374;6.594;2023-04-24T12:12:40;10.30;99.90
22471;DHT22;11402;51.374;6.594;2023-04-24T12:15:08;10.20;99.90
22471;DHT22;11402;51.374;6.594;2023-04-24T12:17:35;10.40;99.90
22471;DHT22;11402;51.374;6.594;2023-04-24T12:20:06;10.50;99.90
22471;DHT22;11402;51.374;6.594;2023-04-24T12:22:59;10.60;99.90
22471;DHT22;11402;51.374;6.594;2023-04-24T12:25:27;10.90;99.90
22471;DHT22;11402;51.374;6.594;2023-04-24T12:27:55;11.00;99.90
22471;DHT22;11402;51.374;6.594;2023-04-24T12:30:21;11.10;99.90
22471;DHT22;11402;51.374;6.594;2023-04-24T12:32:49;11.00;99.90
22471;DHT22;11402;51.374;6.594;2023-04-24T12:35:22;10.70;99.90
22471;DHT22;11402;51.374;6.594;2023-04-24T12:37:48;10.70;99.90
22471;DHT22;11402;51.374;6.594;2023-04-24T12:40:15;10.70;99.90
22471;DHT22;11402;51.374;6.594;2023-04-24T12:42:48;11.00;99.90
22471;DHT22;11402;51.374;6.594;2023-04-24T12:45:15;10.90;99.90
22471;DHT22;11402;51.374;6.594;2023-04-24T12:47:42;10.80;99.90
22471;DHT22;11402;51.374;6.594;2023-04-24T12:50:09;10.70;99.90
22471;DHT22;11402;51.374;6.594;2023-04-24T12:52:36;10.50;99.90
22471;DHT22;11402;51.374;6.594;2023-04-24T12:55:02;10.50;99.90
22471;DHT22;11402;51.374;6.594;2023-04-24T12:57:29;10.40;99.90
22471;DHT22;11402;51.374;6.594;2023-04-24T12:59:57;10.50;99.90
22471;DHT22;11402;51.374;6.594;2023-04-24T13:02:23;10.60;99.90
22471;DHT22;11402;51.374;6.594;2023-04-24T13:04:50;10.70;99.90
22471;DHT22;11402;51.374;6.594;2023-04-24T13:07:16;10.80;99.90
22471;DHT22;11402;51.374;6.594;2023-04-24T13:09:42;10.60;99.90
22471;DHT22;11402;51.374;6.594;2023-04-24T13:12:09;10.50;99.90
22471;DHT22;11402;51.374;6.594;2023-04-24T13:14:35;10.50;99.90
22471;DHT22;11402;51.374;6.594;2023-04-24T13:17:01;10.60;99.90
22471;DHT22;11402;51.374;6.594;2023-04-24T13:19:28;10.70;99.90
22471;DHT22;11402;51.374;6.594;2023-04-24T13:21:55;10.90;99.90
22471;DHT22;11402;51.374;6.594;2023-04-24T13:24:22;11.10;99.90
22471;DHT22;11402;51.374;6.594;2023-04-24T13:26:50;11.30;99.90
22471;DHT22;11402;51.374;6.594;2023-04-24T13:29:15;11.50;99.90
22471;DHT22;11402;51.374;6.594;2023-04-24T13:31:41;11.60;99.90
22471;DHT22;11402;51.374;6.594;2023-04-24T13:34:07;11.60;99.90
22471;DHT22;11402;51.374;6.594;2023-04-24T13:36:32;11.40;99.90
22471;DHT22;11402;51.374;6.594;2023-04-24T13:38:58;11.20;99.90
22471;DHT22;11402;51.374;6.594;2023-04-24T13:41:24;11.10;99.90
22471;DHT22;11402;51.374;6.594;2023-04-24T13:43:49;11.00;99.90
22471;DHT22;11402;51.374;6.594;2023-04-24T13:46:15;11.10;99.90
22471;DHT22;11402;51.374;6.594;2023-04-24T13:48:41;11.20;99.90
22471;DHT22;11402;51.374;6.594;2023-04-24T13:51:06;11.50;99.90
22471;DHT22;11402;51.374;6.594;2023-04-24T13:53:32;11.80;99.90
22471;DHT22;11402;51.374;6.594;2023-04-24T13:56:01;11.80;99.90
22471;DHT22;11402;51.374;6.594;2023-04-24T13:58:27;11.90;99.90
22471;DHT22;11402;51.374;6.594;2023-04-24T14:00:53;11.90;99.90
22471;DHT22;11402;51.374;6.594;2023-04-24T14:03:18;11.90;99.90
22471;DHT22;11402;51.374;6.594;2023-04-24T14:05:44;12.10;99.90
22471;DHT22;11402;51.374;6.594;2023-04-24T14:08:09;12.00;99.90
22471;DHT22;11402;51.374;6.594;2023-04-24T14:10:35;11.90;99.90
22471;DHT22;11402;51.374;6.594;2023-04-24T14:13:01;11.90;99.90
22471;DHT22;11402;51.374;6.594;2023-04-24T14:15:26;12.00;99.90
22471;DHT22;11402;51.374;6.594;2023-04-24T14:17:52;12.00;99.90
22471;DHT22;11402;51.374;6.594;2023-04-24T14:20:17;11.90;99.90
22471;DHT22;11402;51.374;6.594;2023-04-24T14:22:43;11.70;99.90
22471;DHT22;11402;51.374;6.594;2023-04-24T14:25:09;11.60;99.90
22471;DHT22;11402;51.374;6.594;2023-04-24T14:27:34;11.50;99.90
22471;DHT22;11402;51.374;6.594;2023-04-24T14:30:00;11.50;99.90
22471;DHT22;11402;51.374;6.594;2023-04-24T14:32:26;11.40;99.90
22471;DHT22;11402;51.374;6.594;2023-04-24T14:34:52;11.40;99.90
22471;DHT22;11402;51.374;6.594;2023-04-24T14:37:17;11.30;99.90
22471;DHT22;11402;51.374;6.594;2023-04-24T14:39:43;11.30;99.90
22471;DHT22;11402;51.374;6.594;2023-04-24T14:42:08;11.20;99.90
22471;DHT22;11402;51.374;6.594;2023-04-24T14:44:34;11.10;99.90
22471;DHT22;11402;51.374;6.594;2023-04-24T14:47:00;11.20;99.90
22471;DHT22;11402;51.374;6.594;2023-04-24T14:49:25;11.10;99.90
22471;DHT22;11402;51.374;6.594;2023-04-24T14:51:51;11.10;99.90
22471;DHT22;11402;51.374;6.594;2023-04-24T14:54:17;11.20;99.90
22471;DHT22;11402;51.374;6.594;2023-04-24T14:56:42;11.20;99.90
22471;DHT22;11402;51.374;6.594;2023-04-24T14:59:10;11.40;99.90
22471;DHT22;11402;51.374;6.594;2023-04-24T15:01:36;11.50;99.90
22471;DHT22;11402;51.374;6.594;2023-04-24T15:04:01;11.60;99.90
22471;DHT22;11402;51.374;6.594;2023-04-24T15:06:27;11.40;99.90
22471;DHT22;11402;51.374;6.594;2023-04-24T15:08:53;11.10;99.90
22471;DHT22;11402;51.374;6.594;2023-04-24T15:11:19;11.00;99.90
22471;DHT22;11402;51.374;6.594;2023-04-24T15:13:45;11.20;99.90
22471;DHT22;11402;51.374;6.594;2023-04-24T15:16:11;11.20;99.90
22471;DHT22;11402;51.374;6.594;2023-04-24T15:18:36;11.20;99.90
22471;DHT22;11402;51.374;6.594;2023-04-24T15:21:02;11.40;99.90
22471;DHT22;11402;51.374;6.594;2023-04-24T15:23:27;11.40;99.90
22471;DHT22;11402;51.374;6.594;2023-04-24T15:25:53;11.30;99.90
22471;DHT22;11402;51.374;6.594;2023-04-24T15:28:19;11.30;99.90
22471;DHT22;11402;51.374;6.594;2023-04-24T15:30:44;11.50;99.90
22471;DHT22;11402;51.374;6.594;2023-04-24T15:33:10;11.50;99.90
22471;DHT22;11402;51.374;6.594;2023-04-24T15:35:36;11.60;99.90
22471;DHT22;11402;51.374;6.594;2023-04-24T15:38:01;11.70;99.90
22471;DHT22;11402;51.374;6.594;2023-04-24T15:40:27;11.90;99.90
22471;DHT22;11402;51.374;6.594;2023-04-24T15:42:53;11.70;99.90
22471;DHT22;11402;51.374;6.594;2023-04-24T15:45:19;11.60;99.90
22471;DHT22;11402;51.374;6.594;2023-04-24T15:47:45;11.50;99.90
22471;DHT22;11402;51.374;6.594;2023-04-24T15:50:11;11.70;99.90
22471;DHT22;11402;51.374;6.594;2023-04-24T15:52:37;11.90;99.90